createdAt,value
2023-11-17T00:01:50.016Z,99689.80
2023-11-17T00:04:03.741Z,99688.27
2023-11-17T00:06:16.784Z,99686.21
2023-11-17T00:08:30.064Z,99685.12
2023-11-17T00:10:43.148Z,99683.95
2023-11-17T00:12:55.980Z,99681.29
2023-11-17T00:15:10.127Z,99685.24
2023-11-17T00:17:23.539Z,99680.23
2023-11-17T00:19:36.382Z,99680.73
2023-11-17T00:21:49.279Z,99675.30
2023-11-17T00:24:04.686Z,99676.09
2023-11-17T00:26:18.813Z,99673.13
2023-11-17T00:28:40.813Z,99674.66
2023-11-17T00:30:54.385Z,99678.17
2023-11-17T00:33:07.300Z,99678.98
2023-11-17T00:35:21.720Z,99679.79
2023-11-17T00:37:34.779Z,99679.61
2023-11-17T00:39:48.285Z,99683.50
2023-11-17T00:42:01.743Z,99680.38
2023-11-17T00:44:14.696Z,99681.91
2023-11-17T00:46:27.943Z,99685.88
2023-11-17T00:48:41.013Z,99685.94
2023-11-17T00:50:54.031Z,99683.29
2023-11-17T00:53:07.148Z,99682.23
2023-11-17T00:55:20.664Z,99683.08
2023-11-17T00:57:34.123Z,99682.25
2023-11-17T00:59:46.939Z,99685.05
2023-11-17T01:02:00.910Z,99687.57
2023-11-17T01:04:15.770Z,99687.88
2023-11-17T01:06:29.014Z,99685.95
2023-11-17T01:08:41.912Z,99686.85
2023-11-17T01:10:55.164Z,99688.52
2023-11-17T01:13:09.413Z,99687.24
2023-11-17T01:15:22.289Z,99685.56
2023-11-17T01:17:35.400Z,99688.52
2023-11-17T01:19:48.189Z,99690.94
2023-11-17T01:22:01.150Z,99690.14
2023-11-17T01:24:14.103Z,99692.27
2023-11-17T01:26:27.000Z,99688.83
2023-11-17T01:28:39.815Z,99692.25
2023-11-17T01:30:52.701Z,99692.17
2023-11-17T01:33:07.172Z,99693.48
2023-11-17T01:35:20.673Z,99690.85
2023-11-17T01:37:33.509Z,99691.77
2023-11-17T01:39:46.468Z,99690.42
2023-11-17T01:41:59.297Z,99693.85
2023-11-17T01:44:12.146Z,99694.56
2023-11-17T01:46:25.754Z,99689.66
2023-11-17T01:48:40.200Z,99688.88
2023-11-17T01:50:53.901Z,99688.81
2023-11-17T01:53:08.612Z,99688.41
2023-11-17T01:55:21.613Z,99690.98
2023-11-17T01:57:38.557Z,99690.52
2023-11-17T01:59:51.378Z,99688.05
2023-11-17T02:02:05.801Z,99688.25
2023-11-17T02:04:19.239Z,99687.40
2023-11-17T02:06:47.420Z,99688.92
2023-11-17T02:09:22.877Z,99687.20
2023-11-17T02:11:43.158Z,99693.68
2023-11-17T02:14:07.079Z,99690.50
2023-11-17T02:16:26.028Z,99694.73
2023-11-17T02:18:51.222Z,99693.02
2023-11-17T02:21:07.026Z,99693.23
2023-11-17T02:23:26.190Z,99696.88
2023-11-17T02:26:04.098Z,99701.81
2023-11-17T02:28:35.852Z,99701.61
2023-11-17T02:30:57.206Z,99699.69
2023-11-17T02:33:12.371Z,99703.43
2023-11-17T02:35:30.184Z,99706.44
2023-11-17T02:37:45.021Z,99706.59
2023-11-17T02:39:57.977Z,99708.35
2023-11-17T02:42:14.712Z,99714.16
2023-11-17T02:44:30.457Z,99711.42
2023-11-17T02:46:46.032Z,99714.63
2023-11-17T02:49:04.529Z,99721.83
2023-11-17T02:51:20.437Z,99720.98
2023-11-17T02:53:36.893Z,99727.19
2023-11-17T02:55:49.859Z,99730.27
2023-11-17T02:58:05.011Z,99730.92
2023-11-17T03:00:18.074Z,99733.32
2023-11-17T03:02:30.996Z,99736.58
2023-11-17T03:04:43.946Z,99740.52
2023-11-17T03:06:57.434Z,99741.86
2023-11-17T03:09:13.927Z,99742.39
2023-11-17T03:11:26.736Z,99746.89
2023-11-17T03:13:41.519Z,99743.57
2023-11-17T03:15:54.328Z,99745.80
2023-11-17T03:18:10.665Z,99750.42
2023-11-17T03:20:23.673Z,99751.99
2023-11-17T03:22:36.510Z,99753.20
2023-11-17T03:24:49.375Z,99751.97
2023-11-17T03:27:04.107Z,99757.98
2023-11-17T03:29:17.202Z,99759.48
2023-11-17T03:31:30.696Z,99756.16
2023-11-17T03:33:47.273Z,99757.16
2023-11-17T03:36:00.164Z,99757.86
2023-11-17T03:38:15.398Z,99760.73
2023-11-17T03:40:28.515Z,99763.41
2023-11-17T03:42:41.740Z,99759.45
2023-11-17T03:44:58.323Z,99757.73
2023-11-17T03:47:11.426Z,99755.95
2023-11-17T03:49:25.784Z,99760.63
2023-11-17T03:51:38.732Z,99758.05
2023-11-17T03:53:51.481Z,99760.05
2023-11-17T03:56:05.260Z,99765.35
2023-11-17T03:58:20.424Z,99763.44
2023-11-17T04:00:35.509Z,99766.65
2023-11-17T04:02:48.426Z,99765.67
2023-11-17T04:05:05.022Z,99767.62
2023-11-17T04:07:18.007Z,99767.30
2023-11-17T04:09:30.776Z,99764.81
2023-11-17T04:11:44.360Z,99763.83
2023-11-17T04:13:57.199Z,99770.58
2023-11-17T04:16:11.765Z,99777.35
2023-11-17T04:18:26.370Z,99774.01
2023-11-17T04:20:39.215Z,99774.92
2023-11-17T04:22:52.324Z,99784.20
2023-11-17T04:25:05.920Z,99784.91
2023-11-17T04:27:20.276Z,99791.80
2023-11-17T04:29:33.660Z,99789.27
2023-11-17T04:31:46.427Z,99789.17
2023-11-17T04:33:59.246Z,99787.32
2023-11-17T04:36:12.173Z,99790.30
2023-11-17T04:38:25.057Z,99795.61
2023-11-17T04:40:37.884Z,99800.27
2023-11-17T04:42:50.731Z,99800.46
2023-11-17T04:45:04.658Z,99803.75
2023-11-17T04:47:17.562Z,99804.98
2023-11-17T04:49:30.390Z,99807.75
2023-11-17T04:51:49.344Z,99813.14
2023-11-17T04:54:02.662Z,99812.23
2023-11-17T04:56:15.584Z,99812.98
2023-11-17T04:58:28.414Z,99813.50
2023-11-17T05:00:44.484Z,99812.51
2023-11-17T05:02:57.368Z,99814.72
2023-11-17T05:05:12.095Z,99820.84
2023-11-17T05:07:25.829Z,99825.41
2023-11-17T05:09:39.155Z,99830.39
2023-11-17T05:11:52.046Z,99835.36
2023-11-17T05:14:06.300Z,99839.66
2023-11-17T05:16:19.268Z,99841.83
2023-11-17T05:18:32.165Z,99844.35
2023-11-17T05:20:45.054Z,99846.92
2023-11-17T05:22:57.845Z,99849.96
2023-11-17T05:25:11.162Z,99849.55
2023-11-17T05:27:24.021Z,99849.17
2023-11-17T05:29:37.386Z,99845.90
2023-11-17T05:31:50.262Z,99847.00
2023-11-17T05:34:03.219Z,99846.99
2023-11-17T05:36:16.688Z,99847.55
2023-11-17T05:38:29.578Z,99852.33
2023-11-17T05:40:42.592Z,99855.89
2023-11-17T05:42:55.443Z,99855.97
2023-11-17T05:45:13.455Z,99856.33
2023-11-17T05:47:26.683Z,99857.48
2023-11-17T05:49:45.471Z,99857.98
2023-11-17T05:51:58.496Z,99867.27
2023-11-17T05:54:11.399Z,99867.35
2023-11-17T05:56:24.574Z,99867.55
2023-11-17T05:58:37.602Z,99870.34
2023-11-17T06:00:50.409Z,99875.60
2023-11-17T06:03:06.313Z,99878.67
2023-11-17T06:05:19.621Z,99885.41
2023-11-17T06:07:34.381Z,99889.30
2023-11-17T06:10:47.333Z,99887.70
2023-11-17T06:13:01.683Z,99895.43
2023-11-17T06:15:24.157Z,99900.85
2023-11-17T06:17:37.684Z,99905.23
2023-11-17T06:19:50.572Z,99911.65
2023-11-17T06:22:03.511Z,99914.67
2023-11-17T06:24:16.596Z,99916.48
2023-11-17T06:26:29.394Z,99915.05
2023-11-17T06:28:42.284Z,99920.48
2023-11-17T06:30:55.081Z,99925.95
2023-11-17T06:33:07.889Z,99927.23
2023-11-17T06:35:20.874Z,99933.77
2023-11-17T06:37:33.834Z,99934.42
2023-11-17T06:39:46.739Z,99940.65
2023-11-17T06:41:59.536Z,99941.89
2023-11-17T06:44:12.370Z,99944.85
2023-11-17T06:46:25.437Z,99946.64
2023-11-17T06:48:41.200Z,99964.20
2023-11-17T06:50:54.147Z,99969.20
2023-11-17T06:53:06.996Z,99969.95
2023-11-17T06:55:20.436Z,99971.25
2023-11-17T06:57:33.552Z,99975.45
2023-11-17T06:59:47.137Z,99977.98
2023-11-17T07:02:01.987Z,99983.10
2023-11-17T07:04:16.033Z,99996.93
2023-11-17T07:06:29.450Z,99999.42
2023-11-17T07:08:42.412Z,100004.63
2023-11-17T07:10:56.949Z,100008.95
2023-11-17T07:13:09.751Z,100015.49
2023-11-17T07:15:23.624Z,100014.28
2023-11-17T07:17:36.502Z,100015.95
2023-11-17T07:19:49.581Z,100015.33
2023-11-17T07:22:05.293Z,100021.36
2023-11-17T07:24:19.584Z,100032.22
2023-11-17T07:26:35.383Z,100037.03
2023-11-17T07:28:49.016Z,100041.95
2023-11-17T07:31:01.881Z,100040.41
2023-11-17T07:33:18.001Z,100039.09
2023-11-17T07:35:32.285Z,100042.92
2023-11-17T07:37:45.797Z,100044.70
2023-11-17T07:39:58.760Z,100049.37
2023-11-17T07:42:12.019Z,100050.05
2023-11-17T07:44:24.883Z,100049.19
2023-11-17T07:46:37.741Z,100052.73
2023-11-17T07:48:56.203Z,100053.41
2023-11-17T07:51:11.281Z,100059.45
2023-11-17T07:53:24.328Z,100054.11
2023-11-17T07:55:37.195Z,100056.86
2023-11-17T07:57:50.053Z,100060.60
2023-11-17T08:00:32.425Z,100064.19
2023-11-17T08:02:46.114Z,100072.11
2023-11-17T08:04:59.092Z,100079.98
2023-11-17T08:07:11.945Z,100081.64
2023-11-17T08:09:24.848Z,100084.08
2023-11-17T08:11:40.482Z,100088.38
2023-11-17T08:13:53.270Z,100091.64
2023-11-17T08:16:07.697Z,100098.76
2023-11-17T08:18:20.599Z,100101.77
2023-11-17T08:20:33.455Z,100104.02
2023-11-17T08:22:47.474Z,100107.66
2023-11-17T08:25:00.383Z,100107.35
2023-11-17T08:27:15.335Z,100108.39
2023-11-17T08:29:28.436Z,100109.04
2023-11-17T08:31:41.464Z,100113.61
2023-11-17T08:33:54.408Z,100117.14
2023-11-17T08:36:11.737Z,100119.61
2023-11-17T08:38:26.292Z,100121.77
2023-11-17T08:40:39.266Z,100125.87
2023-11-17T08:42:52.460Z,100130.12
2023-11-17T08:45:09.286Z,100136.86
2023-11-17T08:47:22.106Z,100136.56
2023-11-17T08:49:38.265Z,100139.48
2023-11-17T08:51:51.904Z,100146.60
2023-11-17T08:54:05.146Z,100151.86
2023-11-17T08:56:19.026Z,100154.27
2023-11-17T08:58:32.018Z,100163.86
2023-11-17T09:00:44.860Z,100170.83
2023-11-17T09:02:57.763Z,100181.89
2023-11-17T09:05:10.722Z,100182.45
2023-11-17T09:07:23.536Z,100180.83
2023-11-17T09:09:37.523Z,100184.48
2023-11-17T09:11:50.347Z,100177.31
2023-11-17T09:14:07.785Z,100181.60
2023-11-17T09:16:21.446Z,100183.12
2023-11-17T09:18:34.280Z,100182.73
2023-11-17T09:20:47.206Z,100183.33
2023-11-17T09:23:00.507Z,100188.45
2023-11-17T09:25:15.235Z,100186.91
2023-11-17T09:27:28.145Z,100193.61
2023-11-17T09:29:40.956Z,100191.41
2023-11-17T09:31:53.736Z,100193.51
2023-11-17T09:34:10.022Z,100197.28
2023-11-17T09:36:23.121Z,100192.26
2023-11-17T09:38:37.573Z,100199.56
2023-11-17T09:40:50.665Z,100196.71
2023-11-17T09:43:22.596Z,100196.08
2023-11-17T09:45:38.149Z,100189.16
2023-11-17T09:47:59.538Z,100191.64
2023-11-17T09:50:13.072Z,100187.73
2023-11-17T09:52:27.089Z,100189.69
2023-11-17T09:54:40.423Z,100188.56
2023-11-17T09:56:55.794Z,100188.62
2023-11-17T09:59:09.538Z,100189.45
2023-11-17T10:01:28.742Z,100190.38
2023-11-17T10:03:43.178Z,100186.34
2023-11-17T10:05:59.239Z,100191.41
2023-11-17T10:08:16.991Z,100189.67
2023-11-17T10:10:33.830Z,100188.95
2023-11-17T10:12:52.088Z,100185.21
2023-11-17T10:15:09.572Z,100181.86
2023-11-17T10:17:22.873Z,100182.86
2023-11-17T10:19:40.483Z,100175.04
2023-11-17T10:21:55.503Z,100177.40
2023-11-17T10:24:09.671Z,100177.48
2023-11-17T10:26:23.649Z,100180.92
2023-11-17T10:28:37.234Z,100178.66
2023-11-17T10:30:52.072Z,100178.89
2023-11-17T10:33:15.793Z,100175.91
2023-11-17T10:35:32.524Z,100181.49
2023-11-17T10:37:48.242Z,100182.38
2023-11-17T10:40:06.054Z,100186.39
2023-11-17T10:42:25.229Z,100189.02
2023-11-17T10:44:43.127Z,100193.14
2023-11-17T10:46:55.944Z,100193.98
2023-11-17T10:49:16.882Z,100195.34
2023-11-17T10:51:31.746Z,100196.30
2023-11-17T10:53:45.324Z,100197.98
2023-11-17T10:55:59.173Z,100196.61
2023-11-17T10:58:16.929Z,100199.20
2023-11-17T11:00:34.998Z,100200.64
2023-11-17T11:02:48.712Z,100194.08
2023-11-17T11:05:04.708Z,100193.64
2023-11-17T11:07:17.753Z,100195.72
2023-11-17T11:09:37.991Z,100197.23
2023-11-17T11:11:52.346Z,100203.37
2023-11-17T11:14:05.578Z,100200.70
2023-11-17T11:16:18.564Z,100204.64
2023-11-17T11:18:33.463Z,100204.06
2023-11-17T11:20:47.032Z,100200.76
2023-11-17T11:23:02.943Z,100207.89
2023-11-17T11:25:17.605Z,100203.88
2023-11-17T11:27:31.673Z,100204.70
2023-11-17T11:29:45.464Z,100205.83
2023-11-17T11:31:58.794Z,100205.65
2023-11-17T11:34:12.160Z,100202.89
2023-11-17T11:36:25.115Z,100199.64
2023-11-17T11:38:39.750Z,100200.20
2023-11-17T11:40:53.310Z,100194.64
2023-11-17T11:43:06.452Z,100196.89
2023-11-17T11:45:20.318Z,100204.75
2023-11-17T11:47:33.577Z,100206.41
2023-11-17T11:49:47.306Z,100206.53
2023-11-17T11:52:18.350Z,100205.56
2023-11-17T11:54:32.335Z,100206.07
2023-11-17T11:56:46.045Z,100208.84
2023-11-17T11:58:59.996Z,100207.80
2023-11-17T12:01:18.090Z,100211.44
2023-11-17T12:03:36.135Z,100213.33
2023-11-17T12:05:50.279Z,100215.05
2023-11-17T12:08:20.646Z,100213.68
2023-11-17T12:10:37.114Z,100214.36
2023-11-17T12:12:56.905Z,100217.65
2023-11-17T12:15:10.256Z,100217.12
2023-11-17T12:17:31.401Z,100222.49
2023-11-17T12:19:46.710Z,100219.19
2023-11-17T12:22:03.284Z,100220.89
2023-11-17T12:24:28.281Z,100221.25
2023-11-17T12:26:42.956Z,100222.81
2023-11-17T12:28:57.586Z,100221.23
2023-11-17T12:31:15.480Z,100220.54
2023-11-17T12:33:28.576Z,100220.01
2023-11-17T12:35:41.643Z,100212.86
2023-11-17T12:37:54.583Z,100218.05
2023-11-17T12:40:19.289Z,100215.08
2023-11-17T12:42:32.273Z,100214.09
2023-11-17T12:44:46.085Z,100212.56
2023-11-17T12:46:59.101Z,100214.13
2023-11-17T12:49:14.010Z,100214.65
2023-11-17T12:51:28.930Z,100215.48
2023-11-17T12:53:51.565Z,100216.17
2023-11-17T12:56:05.694Z,100214.06
2023-11-17T12:58:22.228Z,100216.59
2023-11-17T13:00:36.320Z,100216.67
2023-11-17T13:02:49.868Z,100223.73
2023-11-17T13:05:03.142Z,100220.80
2023-11-17T13:07:16.147Z,100223.88
2023-11-17T13:09:29.320Z,100225.77
2023-11-17T13:11:48.056Z,100228.17
2023-11-17T13:14:01.751Z,100231.09
2023-11-17T13:16:19.789Z,100238.80
2023-11-17T13:18:34.914Z,100239.70
2023-11-17T13:20:48.394Z,100239.86
2023-11-17T13:23:01.599Z,100237.02
2023-11-17T13:25:15.914Z,100234.64
2023-11-17T13:27:28.912Z,100234.33
2023-11-17T13:29:43.743Z,100236.89
2023-11-17T13:32:00.323Z,100240.50
2023-11-17T13:34:15.688Z,100240.52
2023-11-17T13:36:36.690Z,100243.31
2023-11-17T13:38:59.595Z,100246.95
2023-11-17T13:41:13.077Z,100251.55
2023-11-17T13:43:26.231Z,100252.27
2023-11-17T13:45:43.843Z,100258.70
2023-11-17T13:48:09.551Z,100265.42
2023-11-17T13:50:24.413Z,100269.39
2023-11-17T13:52:37.440Z,100270.30
2023-11-17T13:54:52.459Z,100266.21
2023-11-17T13:57:10.071Z,100270.86
2023-11-17T13:59:25.043Z,100270.84
2023-11-17T14:01:38.027Z,100271.50
2023-11-17T14:03:51.746Z,100276.14
2023-11-17T14:06:06.453Z,100279.23
2023-11-17T14:08:21.109Z,100282.67
2023-11-17T14:10:34.823Z,100283.21
2023-11-17T14:12:48.402Z,100286.49
2023-11-17T14:15:01.304Z,100292.85
2023-11-17T14:17:15.131Z,100292.45
2023-11-17T14:19:31.387Z,100291.24
2023-11-17T14:21:48.017Z,100296.06
2023-11-17T14:24:02.498Z,100299.14
2023-11-17T14:26:15.622Z,100302.94
2023-11-17T14:28:28.454Z,100302.38
2023-11-17T14:30:43.973Z,100309.40
2023-11-17T14:32:57.055Z,100310.09
2023-11-17T14:35:10.085Z,100311.64
2023-11-17T14:37:27.128Z,100314.90
2023-11-17T14:39:41.161Z,100317.52
2023-11-17T14:41:55.021Z,100321.30
2023-11-17T14:44:09.170Z,100320.44
2023-11-17T14:46:25.113Z,100322.70
2023-11-17T14:48:38.261Z,100328.02
2023-11-17T14:50:51.287Z,100333.83
2023-11-17T14:53:07.362Z,100337.75
2023-11-17T14:55:23.673Z,100340.36
2023-11-17T14:57:36.839Z,100341.95
2023-11-17T14:59:49.772Z,100344.17
2023-11-17T15:02:02.607Z,100347.29
2023-11-17T15:04:20.582Z,100348.89
2023-11-17T15:06:33.561Z,100348.75
2023-11-17T15:08:51.199Z,100348.02
2023-11-17T15:11:04.137Z,100350.62
2023-11-17T15:13:18.164Z,100354.76
2023-11-17T15:15:34.752Z,100354.58
2023-11-17T15:17:48.744Z,100358.70
2023-11-17T15:20:01.959Z,100357.84
2023-11-17T15:22:15.607Z,100358.55
2023-11-17T15:24:29.334Z,100359.95
2023-11-17T15:26:43.379Z,100365.66
2023-11-17T15:28:56.415Z,100369.63
2023-11-17T15:31:11.681Z,100371.69
2023-11-17T15:33:24.602Z,100375.81
2023-11-17T15:35:37.814Z,100380.59
2023-11-17T15:37:51.561Z,100379.58
2023-11-17T15:40:09.485Z,100384.75
2023-11-17T15:42:22.341Z,100385.48
2023-11-17T15:44:36.236Z,100387.39
2023-11-17T15:46:49.122Z,100385.81
2023-11-17T15:49:04.700Z,100389.96
2023-11-17T15:51:18.827Z,100386.55
2023-11-17T15:53:31.685Z,100389.48
2023-11-17T15:55:45.035Z,100394.77
2023-11-17T15:58:00.756Z,100394.23
2023-11-17T16:00:15.999Z,100395.08
2023-11-17T16:02:29.910Z,100402.20
2023-11-17T16:04:43.234Z,100399.63
2023-11-17T16:06:56.855Z,100403.91
2023-11-17T16:09:12.926Z,100407.52
2023-11-17T16:11:26.178Z,100406.61
2023-11-17T16:13:40.689Z,100412.91
2023-11-17T16:15:53.712Z,100411.87
2023-11-17T16:18:06.594Z,100412.91
2023-11-17T16:20:22.308Z,100418.77
2023-11-17T16:22:35.157Z,100418.27
2023-11-17T16:24:47.899Z,100423.58
2023-11-17T16:27:01.259Z,100421.86
2023-11-17T16:29:14.331Z,100425.98
2023-11-17T16:31:27.272Z,100427.55
2023-11-17T16:33:42.053Z,100430.80
2023-11-17T16:35:56.639Z,100432.16
2023-11-17T16:38:11.575Z,100432.34
2023-11-17T16:40:26.151Z,100434.73
2023-11-17T16:42:40.686Z,100438.00
2023-11-17T16:44:54.251Z,100437.81
2023-11-17T16:47:07.661Z,100437.26
2023-11-17T16:49:20.648Z,100433.86
2023-11-17T16:51:33.545Z,100438.64
2023-11-17T16:53:47.526Z,100438.47
2023-11-17T16:56:00.645Z,100441.22
2023-11-17T16:58:16.172Z,100443.79
2023-11-17T17:00:31.109Z,100448.79
2023-11-17T17:02:47.910Z,100446.77
2023-11-17T17:05:00.873Z,100447.81
2023-11-17T17:07:14.481Z,100447.80
2023-11-17T17:09:27.487Z,100446.79
2023-11-17T17:11:41.171Z,100446.09
2023-11-17T17:14:01.049Z,100448.22
2023-11-17T17:16:20.575Z,100450.83
2023-11-17T17:18:33.666Z,100449.79
2023-11-17T17:20:48.496Z,100451.67
2023-11-17T17:23:03.943Z,100455.14
2023-11-17T17:25:20.184Z,100458.12
2023-11-17T17:27:33.064Z,100461.05
2023-11-17T17:29:46.013Z,100461.94
2023-11-17T17:31:58.919Z,100461.61
2023-11-17T17:34:16.901Z,100466.61
2023-11-17T17:36:32.437Z,100466.44
2023-11-17T17:38:47.733Z,100466.13
2023-11-17T17:41:01.562Z,100470.97
2023-11-17T17:43:15.741Z,100469.42
2023-11-17T17:45:29.108Z,100471.84
2023-11-17T17:47:42.162Z,100469.63
2023-11-17T17:49:54.968Z,100470.35
2023-11-17T17:52:08.017Z,100472.58
2023-11-17T17:54:20.907Z,100471.39
2023-11-17T17:56:35.329Z,100473.15
2023-11-17T17:58:50.265Z,100473.20
2023-11-17T18:01:03.428Z,100472.00
2023-11-17T18:03:16.510Z,100473.21
2023-11-17T18:05:31.062Z,100474.29
2023-11-17T18:07:45.442Z,100474.29
2023-11-17T18:09:58.582Z,100472.23
2023-11-17T18:12:11.456Z,100470.85
2023-11-17T18:14:24.577Z,100475.14
2023-11-17T18:16:38.296Z,100474.98
2023-11-17T18:18:51.268Z,100478.44
2023-11-17T18:21:06.336Z,100473.29
2023-11-17T18:23:19.620Z,100474.84
2023-11-17T18:25:32.413Z,100476.20
2023-11-17T18:27:50.061Z,100476.02
2023-11-17T18:30:03.079Z,100479.63
2023-11-17T18:32:15.934Z,100482.03
2023-11-17T18:34:28.754Z,100488.68
2023-11-17T18:36:41.554Z,100488.19
2023-11-17T18:38:54.393Z,100491.43
2023-11-17T18:41:08.168Z,100492.27
2023-11-17T18:43:21.042Z,100490.19
2023-11-17T18:45:34.173Z,100490.52
2023-11-17T18:47:47.619Z,100487.23
2023-11-17T18:50:00.528Z,100491.20
2023-11-17T18:52:13.623Z,100486.91
2023-11-17T18:54:26.497Z,100484.69
2023-11-17T18:56:39.241Z,100487.07
2023-11-17T18:58:55.367Z,100490.70
2023-11-17T19:01:08.817Z,100489.33
2023-11-17T19:03:22.226Z,100493.27
2023-11-17T19:05:35.335Z,100493.63
2023-11-17T19:07:50.245Z,100493.96
2023-11-17T19:10:04.034Z,100491.35
2023-11-17T19:12:16.855Z,100488.41
2023-11-17T19:14:29.635Z,100495.10
2023-11-17T19:16:42.768Z,100494.41
2023-11-17T19:18:55.936Z,100495.06
2023-11-17T19:21:11.051Z,100491.93
2023-11-17T19:23:28.051Z,100496.92
2023-11-17T19:25:41.985Z,100496.98
2023-11-17T19:27:57.216Z,100492.81
2023-11-17T19:30:17.964Z,100493.66
2023-11-17T19:32:31.338Z,100492.50
2023-11-17T19:34:44.792Z,100490.45
2023-11-17T19:36:57.671Z,100493.58
2023-11-17T19:39:16.963Z,100489.95
2023-11-17T19:41:29.723Z,100487.72
2023-11-17T19:43:44.519Z,100487.01
2023-11-17T19:45:57.410Z,100490.61
2023-11-17T19:48:13.623Z,100494.76
2023-11-17T19:50:26.756Z,100490.46
2023-11-17T19:52:39.879Z,100489.10
2023-11-17T19:54:52.678Z,100488.94
2023-11-17T19:57:07.867Z,100489.63
2023-11-17T19:59:23.005Z,100488.59
2023-11-17T20:01:37.497Z,100489.60
2023-11-17T20:03:53.401Z,100488.74
2023-11-17T20:06:06.462Z,100492.34
2023-11-17T20:08:21.230Z,100490.42
2023-11-17T20:10:36.078Z,100491.11
2023-11-17T20:12:49.014Z,100490.45
2023-11-17T20:15:02.275Z,100493.52
2023-11-17T20:17:15.632Z,100495.71
2023-11-17T20:19:28.594Z,100494.70
2023-11-17T20:21:43.126Z,100493.46
2023-11-17T20:23:56.933Z,100496.04
2023-11-17T20:26:10.572Z,100499.45
2023-11-17T20:28:23.455Z,100502.23
2023-11-17T20:30:37.585Z,100502.21
2023-11-17T20:32:51.314Z,100504.61
2023-11-17T20:35:08.812Z,100504.58
2023-11-17T20:37:21.649Z,100503.90
2023-11-17T20:39:34.943Z,100510.46
2023-11-17T20:41:49.306Z,100509.09
2023-11-17T20:44:02.091Z,100512.85
2023-11-17T20:46:26.058Z,100513.21
2023-11-17T20:48:38.958Z,100512.53
2023-11-17T20:50:57.045Z,100509.09
2023-11-17T20:53:10.540Z,100508.91
2023-11-17T20:55:23.996Z,100514.55
2023-11-17T20:57:37.192Z,100524.16
2023-11-17T20:59:50.604Z,100521.42
2023-11-17T21:02:05.024Z,100524.68
2023-11-17T21:04:18.099Z,100530.20
2023-11-17T21:06:30.992Z,100533.79
2023-11-17T21:08:45.089Z,100534.14
2023-11-17T21:10:58.401Z,100530.67
2023-11-17T21:13:11.305Z,100528.45
2023-11-17T21:15:27.185Z,100532.96
2023-11-17T21:17:45.533Z,100536.40
2023-11-17T21:20:00.341Z,100538.29
2023-11-17T21:22:13.496Z,100542.58
2023-11-17T21:24:28.200Z,100544.48
2023-11-17T21:26:42.104Z,100548.27
2023-11-17T21:28:55.762Z,100548.95
2023-11-17T21:31:08.678Z,100549.30
2023-11-17T21:33:21.482Z,100551.38
2023-11-17T21:35:35.407Z,100550.67
2023-11-17T21:37:56.737Z,100548.61
2023-11-17T21:40:16.984Z,100553.25
2023-11-17T21:42:29.866Z,100557.17
2023-11-17T21:44:42.677Z,100560.07
2023-11-17T21:46:56.506Z,100559.89
2023-11-17T21:49:09.802Z,100560.38
2023-11-17T21:51:22.633Z,100561.39
2023-11-17T21:53:35.726Z,100561.90
2023-11-17T21:55:49.629Z,100563.29
2023-11-17T21:58:04.159Z,100570.68
2023-11-17T22:00:18.711Z,100570.34
2023-11-17T22:02:31.946Z,100575.96
2023-11-17T22:04:44.826Z,100573.57
2023-11-17T22:07:00.269Z,100576.66
2023-11-17T22:09:14.274Z,100579.95
2023-11-17T22:11:27.076Z,100579.43
2023-11-17T22:13:41.570Z,100581.49
2023-11-17T22:15:54.439Z,100580.13
2023-11-17T22:18:08.869Z,100581.15
2023-11-17T22:20:21.753Z,100581.67
2023-11-17T22:22:35.016Z,100579.09
2023-11-17T22:24:48.339Z,100574.77
2023-11-17T22:27:01.499Z,100580.27
2023-11-17T22:29:15.673Z,100577.55
2023-11-17T22:31:30.037Z,100581.52
2023-11-17T22:33:42.902Z,100586.14
2023-11-17T22:35:55.717Z,100590.09
2023-11-17T22:38:08.557Z,100591.29
2023-11-17T22:40:23.508Z,100593.00
2023-11-17T22:42:36.775Z,100592.14
2023-11-17T22:44:49.598Z,100593.98
2023-11-17T22:47:02.931Z,100595.86
2023-11-17T22:49:15.925Z,100593.39
2023-11-17T22:51:28.859Z,100589.27
2023-11-17T22:53:41.707Z,100592.70
2023-11-17T22:55:54.511Z,100596.13
2023-11-17T22:58:07.353Z,100593.71
2023-11-17T23:00:53.436Z,100601.25
2023-11-17T23:03:10.759Z,100600.45
2023-11-17T23:05:26.166Z,100604.38
2023-11-17T23:07:40.808Z,100600.42
2023-11-17T23:09:53.745Z,100599.73
2023-11-17T23:12:09.548Z,100598.48
2023-11-17T23:14:22.489Z,100600.52
2023-11-17T23:16:37.775Z,100600.02
2023-11-17T23:18:50.759Z,100600.88
2023-11-17T23:21:06.703Z,100602.24
2023-11-17T23:23:19.479Z,100599.14
2023-11-17T23:25:34.113Z,100600.66
2023-11-17T23:27:46.945Z,100599.65
2023-11-17T23:30:00.698Z,100597.23
2023-11-17T23:32:15.016Z,100598.42
2023-11-17T23:34:28.560Z,100599.13
2023-11-17T23:36:41.754Z,100596.23
2023-11-17T23:38:54.681Z,100595.19
2023-11-17T23:41:07.805Z,100595.83
2023-11-17T23:43:21.314Z,100595.83
2023-11-17T23:45:35.486Z,100599.45
2023-11-17T23:47:49.420Z,100603.79
2023-11-17T23:50:02.352Z,100606.54
2023-11-17T23:52:16.606Z,100609.65
2023-11-17T23:54:29.620Z,100607.61
2023-11-17T23:56:42.460Z,100607.11
2023-11-17T23:58:56.239Z,100606.77
